Time;durP1;ratioP1;P1;durP2;ratioP2;P2;SDS_P1;SDS_P2;PMS_P1;PMS_P2;Temp;Humidity;BMP_temperature;BMP_pressure;BME280_temperature;BME280_humidity;BME280_pressure;Samples;Min_cycle;Max_cycle;Signal;HPM_P1;HPM_P2
2024/01/07 00:01:35;;;;;;;42.30;24.87;;;3.80;75.00;;;;;;5112232;28;20454;-71
2024/01/07 00:04:00;;;;;;;39.50;23.43;;;3.80;73.70;;;;;;5112132;28;20400;-71
2024/01/07 00:06:26;;;;;;;42.60;26.10;;;3.80;73.70;;;;;;5111751;28;20886;-71
2024/01/07 00:08:51;;;;;;;42.73;26.03;;;3.80;74.70;;;;;;5111833;28;20373;-71
2024/01/07 00:11:17;;;;;;;40.20;24.90;;;3.80;75.30;;;;;;5093280;28;20386;-71
2024/01/07 00:13:43;;;;;;;42.50;24.88;;;3.80;74.80;;;;;;5112215;28;20376;-71
2024/01/07 00:16:08;;;;;;;43.63;24.90;;;3.90;75.20;;;;;;5093366;28;20404;-71
2024/01/07 00:18:34;;;;;;;41.03;26.13;;;3.90;75.30;;;;;;5112321;28;20797;-71
2024/01/07 00:21:00;;;;;;;40.58;25.60;;;4.00;73.50;;;;;;5111986;28;20924;-73
2024/01/07 00:23:25;;;;;;;41.00;26.43;;;4.00;72.70;;;;;;5115250;28;20406;-71
2024/01/07 00:25:51;;;;;;;40.87;25.67;;;3.90;73.80;;;;;;5115083;28;20870;-71
2024/01/07 00:28:16;;;;;;;41.05;25.77;;;3.90;74.00;;;;;;5095594;28;20471;-72
2024/01/07 00:30:42;;;;;;;40.80;25.95;;;3.90;73.70;;;;;;5095675;28;20388;-72
2024/01/07 00:33:07;;;;;;;40.03;26.00;;;3.90;74.00;;;;;;5113704;28;20392;-72
2024/01/07 00:35:33;;;;;;;40.17;25.07;;;3.90;74.90;;;;;;5113662;28;20414;-71
2024/01/07 00:37:58;;;;;;;40.47;24.67;;;4.00;74.30;;;;;;5114301;28;20939;-72
2024/01/07 00:40:24;;;;;;;40.67;24.93;;;4.00;74.60;;;;;;5117567;28;20380;-71
2024/01/07 00:42:51;;;;;;;41.00;25.63;;;4.00;74.20;;;;;;5101775;28;20809;-72
2024/01/07 00:45:17;;;;;;;41.42;25.20;;;3.90;74.30;;;;;;5121230;28;20448;-71
2024/01/07 00:47:43;;;;;;;38.47;25.70;;;4.00;74.60;;;;;;5121155;28;20873;-71
2024/01/07 00:50:08;;;;;;;35.72;23.80;;;4.00;76.30;;;;;;5103364;28;20384;-71
2024/01/07 00:52:36;;;;;;;38.38;23.40;;;4.10;74.90;;;;;;5119568;28;20381;-71
2024/01/07 00:55:03;;;;;;;38.03;23.80;;;4.10;73.30;;;;;;5117282;28;20901;-71
2024/01/07 00:57:29;;;;;;;36.00;23.38;;;4.10;72.50;;;;;;5117394;28;20457;-73
2024/01/07 00:59:54;;;;;;;33.20;22.17;;;4.10;74.00;;;;;;5112941;28;20846;-72
2024/01/07 01:02:20;;;;;;;29.00;21.17;;;4.10;72.60;;;;;;5113180;28;20469;-72
2024/01/07 01:04:45;;;;;;;32.07;21.20;;;4.10;71.40;;;;;;5112928;28;20388;-71
2024/01/07 01:07:11;;;;;;;34.07;22.00;;;4.10;71.90;;;;;;5112558;28;20426;-71
2024/01/07 01:09:37;;;;;;;31.73;21.50;;;4.10;71.20;;;;;;5094907;28;20377;-72
2024/01/07 01:12:02;;;;;;;33.03;23.13;;;4.10;70.80;;;;;;5116597;28;20406;-72
2024/01/07 01:14:28;;;;;;;35.65;24.08;;;4.10;69.30;;;;;;5117377;28;20380;-72
2024/01/07 01:16:53;;;;;;;36.53;23.90;;;4.00;68.50;;;;;;5116765;28;21075;-72
2024/01/07 01:19:19;;;;;;;36.90;25.10;;;4.00;68.50;;;;;;5117677;28;20380;-72
2024/01/07 01:21:44;;;;;;;36.10;25.10;;;3.90;70.30;;;;;;5117942;28;20391;-71
2024/01/07 01:24:10;;;;;;;39.10;26.07;;;3.90;69.90;;;;;;5099682;28;20889;-71
2024/01/07 01:26:36;;;;;;;38.83;26.58;;;4.00;69.90;;;;;;5117758;28;20933;-72
2024/01/07 01:29:01;;;;;;;37.25;25.63;;;4.00;70.40;;;;;;5097389;28;20377;-71
2024/01/07 01:31:27;;;;;;;36.78;24.83;;;4.00;71.20;;;;;;5116395;28;20380;-72
2024/01/07 01:33:52;;;;;;;34.90;25.05;;;4.00;70.30;;;;;;5120055;28;20391;-72
2024/01/07 01:36:18;;;;;;;34.57;23.17;;;4.00;69.40;;;;;;5118509;28;20393;-70
2024/01/07 01:38:43;;;;;;;33.50;21.40;;;4.00;68.90;;;;;;5118747;28;20380;-71
2024/01/07 01:41:09;;;;;;;32.33;21.10;;;3.90;67.90;;;;;;5098428;28;20743;-71
2024/01/07 01:43:35;;;;;;;31.15;20.33;;;3.90;68.30;;;;;;5115666;28;20451;-72
2024/01/07 01:46:01;;;;;;;29.85;20.42;;;3.90;68.20;;;;;;5115313;28;20728;-71
2024/01/07 01:48:28;;;;;;;32.55;20.58;;;3.90;68.20;;;;;;5115110;28;20381;-71
2024/01/07 01:50:57;;;;;;;31.15;20.10;;;3.90;68.20;;;;;;5115386;28;20403;-71
2024/01/07 01:53:26;;;;;;;27.52;18.70;;;3.80;68.50;;;;;;5115096;28;20460;-70
2024/01/07 01:55:53;;;;;;;29.67;19.90;;;3.80;68.60;;;;;;5115200;28;20479;-72
2024/01/07 01:58:20;;;;;;;31.38;19.98;;;3.80;68.90;;;;;;5114713;28;20728;-71
2024/01/07 02:00:45;;;;;;;30.20;20.33;;;3.70;68.70;;;;;;5096259;28;20384;-71
2024/01/07 02:03:11;;;;;;;28.67;19.80;;;3.70;69.60;;;;;;5114606;28;20404;-71
2024/01/07 02:05:37;;;;;;;29.30;19.30;;;3.70;70.60;;;;;;5114472;28;20392;-72
2024/01/07 02:08:02;;;;;;;29.40;20.10;;;3.80;70.40;;;;;;5114460;28;20380;-71
2024/01/07 02:10:34;;;;;;;30.50;20.90;;;3.90;68.70;;;;;;5114315;28;20373;-72
2024/01/07 02:13:00;;;;;;;30.90;21.30;;;3.90;68.50;;;;;;5114437;28;20376;-71
2024/01/07 02:15:25;;;;;;;33.55;21.52;;;3.80;70.50;;;;;;5096158;28;20382;-73
2024/01/07 02:17:51;;;;;;;32.05;21.33;;;3.90;71.20;;;;;;5128260;22;20428;-76
2024/01/07 02:20:17;;;;;;;28.93;20.90;;;3.90;68.10;;;;;;5115111;28;20368;-77
2024/01/07 02:22:42;;;;;;;27.90;19.40;;;4.00;67.00;;;;;;5114675;28;20847;-76
2024/01/07 02:25:08;;;;;;;32.33;21.70;;;3.90;65.50;;;;;;5115603;28;20395;-76
2024/01/07 02:27:34;;;;;;;30.23;20.33;;;3.90;66.00;;;;;;5115235;28;20449;-76
2024/01/07 02:30:00;;;;;;;31.43;20.60;;;3.80;66.00;;;;;;5114853;28;20412;-76
2024/01/07 02:32:25;;;;;;;31.33;19.95;;;3.80;65.40;;;;;;5114574;28;20372;-77
2024/01/07 02:34:51;;;;;;;31.27;20.92;;;3.80;67.20;;;;;;5114721;28;20399;-75
2024/01/07 02:37:16;;;;;;;32.70;21.60;;;3.70;66.50;;;;;;5114721;28;20372;-74
2024/01/07 02:39:42;;;;;;;33.27;21.40;;;3.60;66.90;;;;;;5117561;28;20414;-77
2024/01/07 02:42:07;;;;;;;32.37;21.20;;;3.60;68.00;;;;;;5119810;28;20402;-75
2024/01/07 02:44:33;;;;;;;34.10;21.43;;;3.60;68.40;;;;;;5116706;28;20380;-76
2024/01/07 02:46:59;;;;;;;34.33;21.88;;;3.50;68.80;;;;;;5114892;28;20372;-75
2024/01/07 02:49:24;;;;;;;35.47;21.65;;;3.50;69.30;;;;;;5114869;28;20391;-76
2024/01/07 02:51:50;;;;;;;35.88;21.90;;;3.50;70.00;;;;;;5114699;28;20372;-76
2024/01/07 02:54:15;;;;;;;34.93;22.73;;;3.50;70.10;;;;;;5114377;28;20377;-75
2024/01/07 02:56:41;;;;;;;32.17;21.00;;;3.60;70.50;;;;;;5114801;28;20433;-77
2024/01/07 02:59:06;;;;;;;37.22;22.50;;;3.60;68.90;;;;;;5096906;28;20381;-76
2024/01/07 03:01:32;;;;;;;36.83;22.38;;;3.50;70.20;;;;;;5114261;28;20916;-76
2024/01/07 03:03:57;;;;;;;35.08;22.33;;;3.50;71.30;;;;;;5115500;28;20897;-76
2024/01/07 03:06:27;;;;;;;36.15;22.70;;;3.50;70.40;;;;;;5115852;28;20386;-76
2024/01/07 03:08:53;;;;;;;34.00;22.85;;;3.50;70.40;;;;;;5115724;28;20391;-74
2024/01/07 03:11:18;;;;;;;37.10;23.80;;;3.50;70.50;;;;;;5114592;28;20467;-75
2024/01/07 03:13:44;;;;;;;33.87;21.33;;;3.50;69.80;;;;;;5096206;28;20888;-76
2024/01/07 03:16:22;;;;;;;38.80;23.38;;;3.50;69.70;;;;;;5115518;28;20397;-75
2024/01/07 03:18:48;;;;;;;36.72;23.52;;;3.60;70.70;;;;;;5115650;28;20393;-75
2024/01/07 03:21:21;;;;;;;35.67;23.35;;;3.60;69.00;;;;;;5115611;28;20387;-76
2024/01/07 03:23:48;;;;;;;40.35;24.90;;;3.50;68.80;;;;;;5115570;28;20397;-76
2024/01/07 03:26:16;;;;;;;38.03;24.93;;;3.50;69.00;;;;;;5114425;28;20384;-75
2024/01/07 03:28:42;;;;;;;42.70;25.40;;;3.40;69.90;;;;;;5113902;28;20387;-77
2024/01/07 03:31:09;;;;;;;35.88;24.67;;;3.40;70.50;;;;;;5113879;28;20380;-76
2024/01/07 03:33:36;;;;;;;35.72;23.30;;;3.40;69.70;;;;;;5112642;28;20388;-76
2024/01/07 03:36:07;;;;;;;33.90;23.15;;;3.40;68.50;;;;;;5113870;28;20411;-77
2024/01/07 03:38:32;;;;;;;34.85;23.52;;;3.40;68.30;;;;;;5114178;28;20458;-76
2024/01/07 03:40:58;;;;;;;34.20;23.87;;;3.40;68.50;;;;;;5113446;28;20387;-75
2024/01/07 03:43:23;;;;;;;32.53;22.20;;;3.40;69.10;;;;;;5113811;28;20394;-76
2024/01/07 03:45:49;;;;;;;35.50;22.97;;;3.40;66.40;;;;;;5113674;28;20396;-76
2024/01/07 03:48:15;;;;;;;31.02;20.75;;;3.40;68.10;;;;;;5113841;28;20742;-75
2024/01/07 03:50:40;;;;;;;31.77;20.97;;;3.50;66.40;;;;;;5113301;28;20391;-77
2024/01/07 03:53:06;;;;;;;30.50;21.20;;;3.50;65.90;;;;;;5117058;28;20431;-77
2024/01/07 03:55:31;;;;;;;30.43;20.00;;;3.60;66.40;;;;;;5116511;28;20430;-74
2024/01/07 03:57:57;;;;;;;28.47;20.27;;;3.60;66.20;;;;;;5113199;28;20384;-77
2024/01/07 04:00:22;;;;;;;28.80;20.33;;;3.60;63.80;;;;;;5113540;28;20662;-75
2024/01/07 04:02:48;;;;;;;29.83;20.10;;;3.50;64.10;;;;;;5095086;28;20400;-77
2024/01/07 04:05:14;;;;;;;28.67;20.27;;;3.50;63.70;;;;;;5112747;28;20387;-74
2024/01/07 04:07:40;;;;;;;30.33;20.17;;;3.60;64.80;;;;;;5114123;28;20857;-75
2024/01/07 04:10:06;;;;;;;29.60;20.20;;;3.50;62.40;;;;;;5113330;28;20488;-75
2024/01/07 04:12:31;;;;;;;33.20;21.13;;;3.50;62.40;;;;;;5112970;28;20542;-75
2024/01/07 04:14:57;;;;;;;29.85;20.65;;;3.40;63.30;;;;;;5113044;28;20441;-75
2024/01/07 04:17:23;;;;;;;31.17;21.30;;;3.30;64.20;;;;;;5112752;28;20400;-76
2024/01/07 04:19:49;;;;;;;34.70;22.20;;;3.40;64.40;;;;;;5113374;28;20785;-75
2024/01/07 04:22:15;;;;;;;30.53;21.47;;;3.30;64.50;;;;;;5113126;28;20376;-75
2024/01/07 04:24:41;;;;;;;32.07;21.80;;;3.30;65.90;;;;;;5114006;28;20376;-76
2024/01/07 04:27:07;;;;;;;33.75;22.58;;;3.30;64.30;;;;;;5116861;28;20777;-75
2024/01/07 04:29:32;;;;;;;37.13;22.40;;;3.30;64.90;;;;;;5127949;28;20376;-75
2024/01/07 04:31:58;;;;;;;34.17;22.10;;;3.20;64.90;;;;;;5125809;28;20380;-76
2024/01/07 04:34:24;;;;;;;37.03;23.73;;;3.20;65.50;;;;;;5115135;28;20395;-76
2024/01/07 04:36:50;;;;;;;33.20;22.98;;;3.20;66.00;;;;;;5113166;28;20380;-77
2024/01/07 04:39:15;;;;;;;31.65;21.92;;;3.20;65.70;;;;;;5114277;28;20376;-75
2024/01/07 04:41:41;;;;;;;34.63;22.93;;;3.20;66.30;;;;;;5112889;28;20383;-76
2024/01/07 04:44:06;;;;;;;34.97;23.15;;;3.30;65.70;;;;;;5113055;28;20870;-75
2024/01/07 04:46:38;;;;;;;32.97;22.75;;;3.30;65.10;;;;;;5113093;28;20388;-75
2024/01/07 04:49:05;;;;;;;35.20;23.38;;;3.20;65.20;;;;;;5112757;28;20382;-75
2024/01/07 04:51:31;;;;;;;30.07;22.17;;;3.30;66.00;;;;;;5112988;28;20385;-75
2024/01/07 04:53:57;;;;;;;33.42;23.63;;;3.30;64.80;;;;;;5112734;28;20399;-75
2024/01/07 04:56:23;;;;;;;31.83;23.40;;;3.30;65.10;;;;;;5114252;28;20384;-75
2024/01/07 04:58:48;;;;;;;31.95;22.17;;;3.30;64.00;;;;;;5113988;28;20432;-75
2024/01/07 05:01:14;;;;;;;33.42;23.80;;;3.20;62.40;;;;;;5113659;28;20826;-76
2024/01/07 05:03:39;;;;;;;33.57;23.00;;;3.20;63.40;;;;;;5095444;28;20481;-76
2024/01/07 05:06:05;;;;;;;31.27;22.07;;;3.20;63.10;;;;;;5113414;28;20388;-75
2024/01/07 05:08:30;;;;;;;33.90;22.67;;;3.20;63.20;;;;;;5113452;28;20412;-76
2024/01/07 05:10:56;;;;;;;34.50;23.38;;;3.20;63.70;;;;;;5113778;28;20433;-76
2024/01/07 05:13:22;;;;;;;36.95;22.92;;;3.20;63.40;;;;;;5113461;28;20430;-76
2024/01/07 05:15:53;;;;;;;30.43;22.27;;;3.20;64.60;;;;;;5113663;28;20435;-76
2024/01/07 05:18:23;;;;;;;32.10;22.10;;;3.20;62.80;;;;;;5113320;28;20376;-76
2024/01/07 05:20:49;;;;;;;30.90;22.05;;;3.20;62.70;;;;;;5114956;28;20863;-76
2024/01/07 05:23:15;;;;;;;31.70;22.27;;;3.20;62.80;;;;;;5112144;28;20412;-75
2024/01/07 05:25:45;;;;;;;34.92;21.48;;;3.30;63.70;;;;;;5096532;28;20393;-76
2024/01/07 05:28:12;;;;;;;30.80;20.42;;;3.30;62.10;;;;;;5116638;28;20869;-76
2024/01/07 05:30:38;;;;;;;29.50;21.52;;;3.30;60.90;;;;;;5116003;28;20904;-75
2024/01/07 05:33:04;;;;;;;27.85;20.00;;;3.30;62.20;;;;;;5113787;28;20384;-75
2024/01/07 05:35:30;;;;;;;24.80;19.20;;;3.30;60.70;;;;;;5115230;28;20388;-76
2024/01/07 05:37:55;;;;;;;29.33;21.55;;;3.20;60.50;;;;;;5117773;28;20389;-76
2024/01/07 05:40:21;;;;;;;29.05;21.55;;;3.10;61.40;;;;;;5115503;28;20402;-76
2024/01/07 05:42:47;;;;;;;29.20;21.27;;;3.20;62.20;;;;;;5114722;28;20403;-75
2024/01/07 05:45:13;;;;;;;27.77;20.20;;;3.20;61.60;;;;;;5113131;28;20392;-75
2024/01/07 05:47:40;;;;;;;24.17;18.95;;;3.20;61.20;;;;;;5112741;28;20381;-76
2024/01/07 05:50:06;;;;;;;23.33;18.50;;;3.20;61.00;;;;;;5112556;28;20395;-75
2024/01/07 05:52:32;;;;;;;24.42;18.65;;;3.20;60.10;;;;;;5112601;28;20384;-76
2024/01/07 05:54:57;;;;;;;26.70;19.00;;;3.10;60.40;;;;;;5112125;28;20383;-76
2024/01/07 05:57:23;;;;;;;25.80;19.03;;;3.20;60.90;;;;;;5115027;28;20384;-74
2024/01/07 05:59:50;;;;;;;26.87;18.80;;;3.10;59.90;;;;;;5097813;28;20383;-75
2024/01/07 06:02:16;;;;;;;26.80;19.58;;;3.20;60.90;;;;;;5116292;28;20384;-75
2024/01/07 06:04:42;;;;;;;27.52;20.25;;;3.10;60.30;;;;;;5117186;28;20770;-76
2024/01/07 06:07:08;;;;;;;26.93;19.83;;;3.00;60.20;;;;;;5115845;28;20409;-74
2024/01/07 06:09:33;;;;;;;28.90;20.67;;;3.10;61.80;;;;;;5116202;28;20410;-76
2024/01/07 06:11:59;;;;;;;31.55;21.13;;;3.10;63.00;;;;;;5116139;28;20696;-76
2024/01/07 06:14:24;;;;;;;33.22;21.95;;;3.20;60.70;;;;;;5116831;28;20492;-75
2024/01/07 06:16:50;;;;;;;31.90;22.60;;;3.10;60.80;;;;;;5115790;28;20403;-74
2024/01/07 06:19:17;;;;;;;35.53;22.90;;;3.00;61.60;;;;;;5116215;28;20449;-75
2024/01/07 06:21:43;;;;;;;35.08;23.38;;;3.00;62.70;;;;;;5099939;28;20380;-75
2024/01/07 06:24:08;;;;;;;31.88;22.50;;;3.10;62.90;;;;;;5118639;28;20453;-76
2024/01/07 06:26:34;;;;;;;35.07;23.20;;;3.10;61.90;;;;;;5118981;28;20380;-76
2024/01/07 06:29:00;;;;;;;34.58;22.50;;;3.00;62.10;;;;;;5117633;28;20434;-74
2024/01/07 06:31:26;;;;;;;32.80;22.05;;;3.00;63.20;;;;;;5118182;28;20369;-75
2024/01/07 06:33:52;;;;;;;33.22;22.50;;;3.00;62.40;;;;;;5119210;28;20384;-75
2024/01/07 06:36:17;;;;;;;32.05;22.30;;;3.00;62.30;;;;;;5120215;28;20475;-74
2024/01/07 06:38:43;;;;;;;35.10;23.10;;;2.90;61.10;;;;;;5118513;28;20429;-75
2024/01/07 06:41:10;;;;;;;33.53;22.40;;;2.80;62.20;;;;;;5115749;28;20463;-76
2024/01/07 06:43:36;;;;;;;36.20;23.83;;;2.80;61.80;;;;;;5115575;28;20392;-76
2024/01/07 06:46:01;;;;;;;34.10;21.87;;;2.80;61.90;;;;;;5115673;28;20387;-75
2024/01/07 06:48:27;;;;;;;34.63;22.50;;;2.80;62.50;;;;;;5115482;28;20373;-75
2024/01/07 06:50:52;;;;;;;33.22;22.30;;;2.90;61.90;;;;;;5115937;28;20376;-76
2024/01/07 06:53:18;;;;;;;36.20;23.92;;;2.90;60.10;;;;;;5115382;28;20731;-75
2024/01/07 06:55:43;;;;;;;31.67;22.15;;;2.80;59.90;;;;;;5097493;28;20470;-76
2024/01/07 06:58:09;;;;;;;36.33;23.60;;;2.90;60.50;;;;;;5115098;28;20419;-76
2024/01/07 07:00:34;;;;;;;33.70;23.33;;;2.90;60.80;;;;;;5115167;28;20457;-74
2024/01/07 07:03:00;;;;;;;33.60;22.80;;;3.00;58.60;;;;;;5098636;28;20443;-75
2024/01/07 07:05:25;;;;;;;35.07;23.73;;;3.00;58.20;;;;;;5122489;28;20391;-75
2024/01/07 07:07:51;;;;;;;34.13;24.30;;;2.90;57.40;;;;;;5114685;28;20384;-76
2024/01/07 07:10:16;;;;;;;34.75;24.05;;;2.80;58.40;;;;;;5115454;28;20893;-75
2024/01/07 07:12:42;;;;;;;37.03;24.50;;;2.80;58.60;;;;;;5115501;28;20862;-76
2024/01/07 07:15:09;;;;;;;34.13;24.33;;;2.90;59.00;;;;;;5115538;28;20387;-75
2024/01/07 07:17:36;;;;;;;36.30;25.08;;;2.90;58.70;;;;;;5096850;28;20407;-76
2024/01/07 07:20:02;;;;;;;35.25;24.63;;;3.00;59.00;;;;;;5114860;28;20389;-76
2024/01/07 07:22:28;;;;;;;36.53;24.83;;;3.00;59.20;;;;;;5114471;28;20793;-76
2024/01/07 07:24:54;;;;;;;39.67;25.20;;;3.00;59.40;;;;;;5114497;28;20894;-74
2024/01/07 07:27:19;;;;;;;36.00;24.70;;;3.00;60.70;;;;;;5113742;28;20380;-75
2024/01/07 07:29:45;;;;;;;39.42;25.40;;;3.10;59.70;;;;;;5114383;28;20384;-75
2024/01/07 07:32:10;;;;;;;37.78;25.73;;;3.10;58.20;;;;;;5095387;28;20416;-76
2024/01/07 07:34:36;;;;;;;35.15;24.30;;;3.10;58.00;;;;;;5114411;28;20380;-75
2024/01/07 07:37:02;;;;;;;39.50;25.10;;;3.00;56.70;;;;;;5113823;28;20422;-76
2024/01/07 07:39:28;;;;;;;42.05;26.45;;;2.90;58.40;;;;;;5114080;28;20738;-76
2024/01/07 07:41:53;;;;;;;39.50;25.83;;;2.90;59.00;;;;;;5114302;28;20373;-76
2024/01/07 07:44:19;;;;;;;37.23;26.23;;;2.90;58.30;;;;;;5114856;28;20441;-75
2024/01/07 07:46:44;;;;;;;38.27;26.17;;;2.90;59.00;;;;;;5113891;28;20879;-75
2024/01/07 07:49:11;;;;;;;39.33;26.92;;;2.90;60.30;;;;;;5114193;28;20843;-76
2024/01/07 07:51:36;;;;;;;37.70;25.15;;;2.90;58.90;;;;;;5113593;28;20437;-74
2024/01/07 07:54:03;;;;;;;38.50;26.50;;;3.00;58.30;;;;;;5121634;28;20863;-75
2024/01/07 07:56:28;;;;;;;39.22;25.92;;;3.00;58.10;;;;;;5126106;28;20733;-75
2024/01/07 07:58:54;;;;;;;40.50;26.70;;;2.90;58.60;;;;;;5118668;28;20380;-75
2024/01/07 08:01:19;;;;;;;41.30;26.70;;;2.90;58.90;;;;;;5112885;28;20384;-76
2024/01/07 08:03:45;;;;;;;45.33;28.33;;;2.80;58.50;;;;;;5113086;28;20392;-75
2024/01/07 08:06:12;;;;;;;42.93;28.10;;;2.70;59.70;;;;;;5111930;28;20549;-75
2024/01/07 08:08:38;;;;;;;48.50;28.45;;;2.60;59.50;;;;;;5113463;28;20420;-75
2024/01/07 08:11:07;;;;;;;47.35;28.52;;;2.60;60.90;;;;;;5112485;28;20823;-75
2024/01/07 08:13:35;;;;;;;39.83;26.60;;;2.70;62.10;;;;;;5112733;28;20372;-76
2024/01/07 08:16:01;;;;;;;42.58;28.08;;;2.80;60.20;;;;;;5112356;28;20396;-74
2024/01/07 08:18:27;;;;;;;42.17;27.17;;;2.70;60.10;;;;;;5132993;22;20509;-76
2024/01/07 08:20:52;;;;;;;43.65;28.25;;;2.80;60.20;;;;;;5110753;28;20489;-74
2024/01/07 08:23:18;;;;;;;43.17;28.73;;;2.80;59.30;;;;;;5112680;28;20889;-73
2024/01/07 08:25:45;;;;;;;44.40;27.47;;;2.80;59.30;;;;;;5113783;28;20538;-75
2024/01/07 08:28:10;;;;;;;41.80;26.58;;;2.80;58.60;;;;;;5111159;28;20382;-75
2024/01/07 08:30:36;;;;;;;38.80;25.50;;;2.80;57.60;;;;;;5111116;28;20840;-74
2024/01/07 08:33:01;;;;;;;37.03;25.10;;;2.80;57.20;;;;;;5092692;28;20428;-75
2024/01/07 08:35:27;;;;;;;36.33;25.83;;;2.80;57.20;;;;;;5112024;28;20399;-75
2024/01/07 08:37:53;;;;;;;38.45;25.67;;;2.70;57.40;;;;;;5111710;28;20465;-74
2024/01/07 08:40:18;;;;;;;39.50;25.33;;;2.70;57.20;;;;;;5111288;28;20376;-73
2024/01/07 08:42:44;;;;;;;35.65;23.67;;;2.80;58.00;;;;;;5111662;28;20402;-73
2024/01/07 08:45:11;;;;;;;31.55;22.27;;;2.80;56.50;;;;;;5111173;28;20392;-72
2024/01/07 08:47:36;;;;;;;32.63;22.15;;;2.80;56.30;;;;;;5110897;28;20391;-73
2024/01/07 08:50:03;;;;;;;26.95;19.85;;;2.90;57.80;;;;;;5110906;28;20380;-73
2024/01/07 08:52:29;;;;;;;24.15;18.33;;;2.90;55.90;;;;;;5110904;28;20708;-74
2024/01/07 08:54:55;;;;;;;24.73;19.17;;;2.90;54.30;;;;;;5110864;28;20379;-73
2024/01/07 08:57:20;;;;;;;24.15;18.58;;;2.80;53.30;;;;;;5110866;28;20390;-72
2024/01/07 08:59:46;;;;;;;28.07;20.33;;;2.80;53.90;;;;;;5111776;28;20408;-75
2024/01/07 09:02:12;;;;;;;24.33;18.33;;;2.80;54.20;;;;;;5112133;28;20433;-75
2024/01/07 09:04:38;;;;;;;25.83;19.58;;;2.80;55.10;;;;;;5111699;28;20759;-74
2024/01/07 09:07:03;;;;;;;24.03;18.90;;;2.80;54.80;;;;;;5112162;28;20415;-75
2024/01/07 09:09:29;;;;;;;28.10;19.55;;;2.90;55.70;;;;;;5094356;28;20855;-75
2024/01/07 09:11:56;;;;;;;26.17;19.87;;;2.90;56.10;;;;;;5111705;28;20381;-72
2024/01/07 09:14:22;;;;;;;24.70;18.58;;;3.10;56.20;;;;;;5111438;28;20388;-75
2024/01/07 09:16:48;;;;;;;24.83;17.80;;;3.20;53.60;;;;;;5110559;28;20396;-74
2024/01/07 09:19:13;;;;;;;22.52;16.90;;;3.20;51.60;;;;;;5092623;28;20471;-74
2024/01/07 09:21:39;;;;;;;23.52;16.88;;;3.10;52.40;;;;;;5110960;28;20392;-74
2024/01/07 09:24:05;;;;;;;23.48;17.45;;;3.10;52.20;;;;;;5111222;28;20404;-74
2024/01/07 09:26:30;;;;;;;21.40;16.60;;;3.10;50.80;;;;;;5110823;28;20372;-74
2024/01/07 09:28:56;;;;;;;21.45;16.55;;;3.00;49.70;;;;;;5110835;28;20380;-74
2024/01/07 09:31:22;;;;;;;22.58;16.95;;;3.00;50.60;;;;;;5111489;28;20408;-74
2024/01/07 09:33:47;;;;;;;23.58;17.45;;;3.00;50.50;;;;;;5114891;28;20909;-74
2024/01/07 09:36:13;;;;;;;24.98;18.00;;;3.00;50.70;;;;;;5114626;28;20441;-72
2024/01/07 09:38:40;;;;;;;22.90;17.27;;;3.00;51.30;;;;;;5115345;28;20433;-75
2024/01/07 09:41:05;;;;;;;23.30;17.70;;;3.10;50.60;;;;;;5118709;28;20401;-72
2024/01/07 09:43:31;;;;;;;23.65;17.45;;;3.10;51.10;;;;;;5121992;28;20483;-73
2024/01/07 09:45:58;;;;;;;22.95;16.92;;;3.10;51.10;;;;;;5121100;28;20392;-75
2024/01/07 09:48:24;;;;;;;25.02;17.75;;;3.10;50.00;;;;;;5123345;28;20727;-75
2024/01/07 09:50:52;;;;;;;27.02;18.55;;;3.10;50.00;;;;;;5119883;28;20795;-75
2024/01/07 09:53:20;;;;;;;22.60;17.65;;;3.10;50.90;;;;;;5120062;28;20372;-74
2024/01/07 09:56:22;;;;;;;23.55;18.42;;;3.10;49.90;;;;;;5124681;28;20380;-75
2024/01/07 09:58:49;;;;;;;28.60;19.33;;;3.00;49.30;;;;;;5125183;28;20390;-74
2024/01/07 10:01:17;;;;;;;28.50;19.80;;;2.90;50.10;;;;;;5125726;28;20426;-75
2024/01/07 10:03:43;;;;;;;24.85;18.65;;;3.00;50.90;;;;;;5125353;28;20452;-76
2024/01/07 10:06:10;;;;;;;25.23;17.98;;;3.00;51.70;;;;;;5100845;28;20404;-76
2024/01/07 10:08:36;;;;;;;25.50;18.08;;;2.90;50.90;;;;;;5118212;28;20471;-75
2024/01/07 10:11:03;;;;;;;24.67;19.00;;;2.90;51.30;;;;;;5120024;28;20380;-74
2024/01/07 10:13:28;;;;;;;24.57;18.87;;;2.90;50.50;;;;;;5121135;28;20388;-75
2024/01/07 10:15:54;;;;;;;27.55;18.70;;;2.90;49.40;;;;;;5120810;28;20392;-73
2024/01/07 10:18:20;;;;;;;24.60;19.02;;;2.80;50.00;;;;;;5120553;28;20388;-75
2024/01/07 10:20:45;;;;;;;23.03;17.33;;;2.70;51.00;;;;;;5122492;28;20392;-76
2024/01/07 10:23:11;;;;;;;23.80;18.20;;;2.70;50.20;;;;;;5121258;28;20392;-75
2024/01/07 10:25:37;;;;;;;26.65;18.58;;;2.80;49.90;;;;;;5120982;28;20385;-75
2024/01/07 10:28:03;;;;;;;24.23;18.80;;;2.70;51.20;;;;;;5121556;28;20372;-74
2024/01/07 10:30:32;;;;;;;23.65;17.80;;;2.80;50.90;;;;;;5122979;28;20394;-73
2024/01/07 10:32:58;;;;;;;22.60;17.20;;;2.90;51.80;;;;;;5106625;28;20391;-74
2024/01/07 10:35:35;;;;;;;22.47;18.30;;;2.90;48.70;;;;;;5126151;28;20570;-73
2024/01/07 10:38:01;;;;;;;22.85;17.42;;;2.80;48.50;;;;;;5124343;28;20388;-74
2024/01/07 10:40:29;;;;;;;23.90;17.60;;;2.90;48.60;;;;;;5122688;28;20943;-72
2024/01/07 10:42:55;;;;;;;21.20;16.65;;;2.80;49.50;;;;;;5122209;28;20526;-73
2024/01/07 10:45:22;;;;;;;21.92;16.33;;;2.70;49.90;;;;;;5122292;28;20721;-74
2024/01/07 10:47:54;;;;;;;21.65;15.70;;;2.80;49.00;;;;;;5117912;28;20382;-74
2024/01/07 10:50:21;;;;;;;20.90;15.85;;;2.80;49.10;;;;;;5116974;28;20463;-74
2024/01/07 10:52:53;;;;;;;19.80;16.08;;;2.70;50.00;;;;;;5116697;28;20373;-74
2024/01/07 10:55:19;;;;;;;20.05;15.40;;;2.70;50.60;;;;;;5115893;28;20453;-75
2024/01/07 10:57:49;;;;;;;20.70;14.98;;;2.90;49.70;;;;;;5115553;28;20445;-76
2024/01/07 11:00:19;;;;;;;21.08;15.70;;;2.90;48.00;;;;;;5115966;28;20475;-76
2024/01/07 11:03:09;;;;;;;20.52;13.93;;;2.90;48.60;;;;;;5101159;28;20429;-73
2024/01/07 11:05:58;;;;;;;19.88;15.00;;;2.90;48.00;;;;;;5125419;28;20662;-76
2024/01/07 11:08:40;;;;;;;19.23;14.30;;;2.90;48.70;;;;;;5124207;28;20739;-72
2024/01/07 11:11:17;;;;;;;18.55;13.90;;;2.90;47.80;;;;;;5124929;28;20803;-73
2024/01/07 11:13:44;;;;;;;20.05;14.45;;;2.90;47.40;;;;;;5125136;28;20806;-74
2024/01/07 11:16:10;;;;;;;18.73;13.90;;;2.90;49.20;;;;;;5123097;28;20399;-75
2024/01/07 11:18:45;;;;;;;17.50;13.32;;;2.90;48.20;;;;;;5118201;28;20385;-75
2024/01/07 11:21:20;;;;;;;16.48;12.77;;;3.00;47.10;;;;;;5098740;28;20388;-74
2024/01/07 11:23:46;;;;;;;17.00;12.52;;;2.90;45.50;;;;;;5118396;28;20428;-75
2024/01/07 11:26:12;;;;;;;14.77;11.10;;;2.80;47.30;;;;;;5120900;28;20876;-75
2024/01/07 11:28:57;;;;;;;19.33;12.32;;;2.70;48.00;;;;;;5116726;28;20849;-75
2024/01/07 11:31:41;;;;;;;15.15;11.60;;;2.80;48.10;;;;;;5116885;28;20483;-74
2024/01/07 11:34:07;;;;;;;17.85;13.15;;;2.90;46.80;;;;;;5098777;28;20882;-75
2024/01/07 11:36:35;;;;;;;22.40;15.60;;;2.80;47.00;;;;;;5118241;28;20380;-75
2024/01/07 11:39:03;;;;;;;21.02;15.60;;;2.90;47.40;;;;;;5119447;28;20372;-74
2024/01/07 11:41:33;;;;;;;20.95;15.05;;;2.90;47.30;;;;;;5117466;28;20483;-75
2024/01/07 11:44:00;;;;;;;21.70;14.98;;;2.90;45.70;;;;;;5115678;28;20803;-75
2024/01/07 11:46:26;;;;;;;21.38;15.23;;;3.00;46.50;;;;;;5112875;28;20403;-74
2024/01/07 11:48:58;;;;;;;22.13;16.20;;;3.00;48.80;;;;;;5113847;28;20375;-75
2024/01/07 11:51:26;;;;;;;21.95;15.50;;;3.00;51.20;;;;;;5115135;28;20405;-73
2024/01/07 11:53:52;;;;;;;18.67;14.55;;;3.00;48.30;;;;;;5115517;28;20400;-74
2024/01/07 11:56:18;;;;;;;20.92;15.20;;;2.90;46.40;;;;;;5115291;28;20391;-74
2024/01/07 11:58:43;;;;;;;21.05;14.80;;;2.90;48.70;;;;;;5115631;28;20389;-75
2024/01/07 12:01:09;;;;;;;16.03;12.77;;;2.90;51.00;;;;;;5117215;28;20429;-73
2024/01/07 12:03:34;;;;;;;18.40;13.00;;;3.00;50.80;;;;;;5117833;28;20392;-75
2024/01/07 12:06:00;;;;;;;17.65;12.73;;;3.10;50.10;;;;;;5116455;28;20408;-74
2024/01/07 12:08:26;;;;;;;17.48;11.90;;;3.10;50.30;;;;;;5114299;28;20388;-73
2024/01/07 12:10:51;;;;;;;13.93;11.07;;;3.10;50.00;;;;;;5113353;28;20416;-75
2024/01/07 12:13:17;;;;;;;12.40;9.97;;;3.20;49.00;;;;;;5112389;28;20460;-74
2024/01/07 12:15:44;;;;;;;13.65;10.15;;;3.20;46.00;;;;;;5113834;28;20743;-73
2024/01/07 12:18:09;;;;;;;11.07;8.82;;;3.30;45.30;;;;;;5118805;28;20405;-74
2024/01/07 12:20:35;;;;;;;15.88;10.80;;;3.20;44.40;;;;;;5120561;28;20579;-75
2024/01/07 12:23:08;;;;;;;13.90;10.50;;;3.10;44.00;;;;;;5119997;28;20396;-74
2024/01/07 12:25:34;;;;;;;13.43;10.00;;;3.10;44.50;;;;;;5116947;28;20384;-75
2024/01/07 12:28:00;;;;;;;13.52;9.55;;;3.10;43.20;;;;;;5114628;28;20385;-73
2024/01/07 12:30:26;;;;;;;14.23;8.88;;;3.10;43.60;;;;;;5113962;28;20404;-75
2024/01/07 12:32:53;;;;;;;12.43;9.32;;;3.10;42.90;;;;;;5113258;28;20380;-75
2024/01/07 12:35:19;;;;;;;11.20;8.98;;;3.00;43.50;;;;;;5113208;28;20387;-75